Time;durP1;ratioP1;P1;durP2;ratioP2;P2;SDS_P1;SDS_P2;PMS_P1;PMS_P2;Temp;Humidity;BMP_temperature;BMP_pressure;BME280_temperature;BME280_humidity;BME280_pressure;Samples;Min_cycle;Max_cycle;Signal;HPM_P1;HPM_P2
2024/03/09 00:00:11;;;;;;;28.83;24.17;;;12.00;57.50;;;;;;4976167;28;20473;-82
2024/03/09 00:03:01;;;;;;;32.33;25.10;;;12.10;57.70;;;;;;4973980;28;20037;-81
2024/03/09 00:05:45;;;;;;;29.92;24.60;;;12.10;57.60;;;;;;4991439;28;20044;-82
2024/03/09 00:08:30;;;;;;;28.35;25.17;;;12.10;57.50;;;;;;4980494;28;20919;-82
2024/03/09 00:11:14;;;;;;;28.20;24.60;;;12.20;57.60;;;;;;4970968;28;20045;-81
2024/03/09 00:13:59;;;;;;;29.35;26.10;;;12.20;58.10;;;;;;4966888;28;20070;-80
2024/03/09 00:16:43;;;;;;;29.67;25.15;;;12.20;58.00;;;;;;4969448;28;20113;-81
2024/03/09 00:19:29;;;;;;;32.10;25.63;;;12.20;57.40;;;;;;4980574;28;20061;-81
2024/03/09 00:22:13;;;;;;;29.40;25.63;;;12.30;57.60;;;;;;4981823;28;20357;-81
2024/03/09 00:24:57;;;;;;;34.63;24.95;;;12.30;57.50;;;;;;4979290;28;20481;-82
2024/03/09 00:27:42;;;;;;;27.75;23.70;;;12.30;57.40;;;;;;4976520;28;20610;-82
2024/03/09 00:30:32;;;;;;;29.85;25.77;;;12.30;57.40;;;;;;4978785;28;20085;-82
2024/03/09 00:33:16;;;;;;;33.10;26.35;;;12.30;57.30;;;;;;4979577;28;20120;-81
2024/03/09 00:36:01;;;;;;;28.65;24.33;;;12.30;57.30;;;;;;4972541;28;20037;-81
2024/03/09 00:38:46;;;;;;;30.40;24.52;;;12.30;57.20;;;;;;4981380;28;20126;-81
2024/03/09 00:41:31;;;;;;;30.90;25.67;;;12.30;57.20;;;;;;4974976;28;20126;-81
2024/03/09 00:44:16;;;;;;;30.50;27.17;;;12.30;57.20;;;;;;4983940;28;20042;-80
2024/03/09 00:47:01;;;;;;;31.85;25.83;;;12.30;57.20;;;;;;4983289;28;20545;-81
2024/03/09 00:49:47;;;;;;;30.65;25.13;;;12.30;57.20;;;;;;4984264;28;20464;-81
2024/03/09 00:52:32;;;;;;;32.33;23.73;;;12.30;57.20;;;;;;4985459;28;20177;-81
2024/03/09 00:55:17;;;;;;;33.15;26.13;;;12.30;57.10;;;;;;4978166;28;20523;-81
2024/03/09 00:58:01;;;;;;;27.80;24.23;;;12.30;57.10;;;;;;4985887;28;20105;-81
2024/03/09 01:00:47;;;;;;;28.88;23.75;;;12.30;57.10;;;;;;4979600;28;20192;-80
2024/03/09 01:03:31;;;;;;;31.92;25.90;;;12.30;57.00;;;;;;4969022;28;20037;-81
2024/03/09 01:06:17;;;;;;;30.73;25.40;;;12.30;57.00;;;;;;4983654;28;20057;-80
2024/03/09 01:09:02;;;;;;;30.30;26.15;;;12.30;56.90;;;;;;4972218;28;20653;-81
2024/03/09 01:11:48;;;;;;;30.05;24.85;;;12.40;57.10;;;;;;4975706;28;20129;-81
2024/03/09 01:14:33;;;;;;;28.27;24.35;;;12.40;57.10;;;;;;4975542;28;20042;-80
2024/03/09 01:17:20;;;;;;;29.27;24.85;;;12.40;57.10;;;;;;4981698;28;20413;-81
2024/03/09 01:20:07;;;;;;;29.23;24.98;;;12.40;57.00;;;;;;4973435;28;20557;-80
2024/03/09 01:22:51;;;;;;;30.35;25.40;;;12.40;56.90;;;;;;4978540;28;20085;-80
2024/03/09 01:25:35;;;;;;;31.35;25.20;;;12.40;56.90;;;;;;4982174;28;20049;-80
2024/03/09 01:28:20;;;;;;;29.95;26.33;;;12.40;56.80;;;;;;4981074;28;20045;-82
2024/03/09 01:31:08;;;;;;;29.70;25.35;;;12.40;56.80;;;;;;4984309;28;20090;-81
2024/03/09 01:33:58;;;;;;;30.15;25.38;;;12.40;56.70;;;;;;4973116;28;20096;-81
2024/03/09 01:36:43;;;;;;;31.63;25.58;;;12.40;56.70;;;;;;4979060;28;20048;-80
2024/03/09 01:39:28;;;;;;;29.88;26.30;;;12.40;56.70;;;;;;4980441;28;20053;-81
2024/03/09 01:42:13;;;;;;;30.17;24.95;;;12.40;56.60;;;;;;4966956;28;20100;-80
2024/03/09 01:44:57;;;;;;;27.55;24.17;;;12.40;56.60;;;;;;4978160;28;21045;-81
2024/03/09 01:47:42;;;;;;;31.35;26.60;;;12.40;56.60;;;;;;4981183;28;20053;-80
2024/03/09 01:50:27;;;;;;;31.65;24.83;;;12.40;56.60;;;;;;4982174;28;20104;-80
2024/03/09 01:53:13;;;;;;;30.70;25.55;;;12.40;56.60;;;;;;4981024;28;20037;-80
2024/03/09 01:56:00;;;;;;;31.35;24.98;;;12.30;56.40;;;;;;4980178;28;20720;-80
2024/03/09 01:58:45;;;;;;;29.48;25.27;;;12.40;56.60;;;;;;4982754;28;20088;-82
2024/03/09 02:01:30;;;;;;;32.22;26.90;;;12.40;56.50;;;;;;4973285;28;20041;-81
2024/03/09 02:04:15;;;;;;;30.92;24.50;;;12.40;56.50;;;;;;4957931;28;20053;-81
2024/03/09 02:07:01;;;;;;;32.50;25.23;;;12.30;56.30;;;;;;4967633;28;20566;-82
2024/03/09 02:09:46;;;;;;;28.25;24.40;;;12.40;56.40;;;;;;4969120;28;20079;-82
2024/03/09 02:12:30;;;;;;;29.38;25.73;;;12.30;56.20;;;;;;4978271;28;20052;-82
2024/03/09 02:15:18;;;;;;;30.55;25.13;;;12.40;56.40;;;;;;4979109;28;20113;-81
2024/03/09 02:18:02;;;;;;;29.23;25.73;;;12.40;56.40;;;;;;4981250;28;20065;-81
2024/03/09 02:20:50;;;;;;;28.05;23.92;;;12.40;56.30;;;;;;4969775;28;20096;-81
2024/03/09 02:23:36;;;;;;;28.85;24.17;;;12.40;56.30;;;;;;4969824;28;20097;-80
2024/03/09 02:26:20;;;;;;;29.63;23.70;;;12.30;56.10;;;;;;4971574;28;20061;-80
2024/03/09 02:29:05;;;;;;;31.25;24.25;;;12.40;56.30;;;;;;4966476;28;20049;-81
2024/03/09 02:31:55;;;;;;;30.35;24.73;;;12.40;56.30;;;;;;4970454;28;20066;-81
2024/03/09 02:34:39;;;;;;;26.65;23.38;;;12.40;56.20;;;;;;4980428;28;20053;-82
2024/03/09 02:37:24;;;;;;;28.45;23.58;;;12.40;56.20;;;;;;4975304;28;20128;-81
2024/03/09 02:40:13;;;;;;;29.02;24.05;;;12.30;56.00;;;;;;4984381;28;20772;-82
2024/03/09 02:43:04;;;;;;;29.17;23.95;;;12.30;56.00;;;;;;4970085;28;20910;-82
2024/03/09 02:45:49;;;;;;;28.15;23.23;;;12.30;56.00;;;;;;4968733;28;20077;-83
2024/03/09 02:48:34;;;;;;;30.92;23.48;;;12.30;56.00;;;;;;4967471;28;20042;-81
2024/03/09 02:51:19;;;;;;;28.80;23.17;;;12.30;56.00;;;;;;4991938;28;20401;-82
2024/03/09 02:54:03;;;;;;;28.88;24.25;;;12.30;56.00;;;;;;4981324;28;20038;-81
2024/03/09 02:56:49;;;;;;;30.58;24.15;;;12.30;56.00;;;;;;4979900;28;20049;-82
2024/03/09 02:59:35;;;;;;;30.42;24.05;;;12.30;56.00;;;;;;4999705;28;20104;-82
2024/03/09 03:05:26;;;;;;;33.95;25.98;;;12.30;56.00;;;;;;4961659;28;20140;-81
2024/03/09 03:08:11;;;;;;;30.80;25.23;;;12.20;55.80;;;;;;4988298;28;20069;-81
2024/03/09 03:10:56;;;;;;;29.23;24.83;;;12.30;56.00;;;;;;4982631;28;20130;-82
2024/03/09 03:13:42;;;;;;;29.88;23.52;;;12.30;55.90;;;;;;4987657;28;20037;-82
2024/03/09 03:16:26;;;;;;;28.95;23.83;;;12.30;56.00;;;;;;4986515;28;20525;-82
2024/03/09 03:19:11;;;;;;;29.85;24.42;;;12.20;55.70;;;;;;4977878;28;20053;-81
2024/03/09 03:21:55;;;;;;;29.05;24.20;;;12.30;55.90;;;;;;4982678;28;20037;-81
2024/03/09 03:24:40;;;;;;;28.52;23.15;;;12.30;55.90;;;;;;4986138;28;20089;-81
2024/03/09 03:27:24;;;;;;;29.13;23.05;;;12.30;55.90;;;;;;4987207;28;20072;-82
2024/03/09 03:30:09;;;;;;;26.20;22.95;;;12.20;55.70;;;;;;4982923;28;20053;-81
2024/03/09 03:32:54;;;;;;;30.83;24.02;;;12.20;55.70;;;;;;4983361;28;20432;-81
2024/03/09 03:35:39;;;;;;;29.38;23.55;;;12.30;55.80;;;;;;4992048;28;20049;-81
2024/03/09 03:38:24;;;;;;;30.20;24.35;;;12.30;55.90;;;;;;4975241;28;20104;-81
2024/03/09 03:41:10;;;;;;;31.98;24.38;;;12.20;55.60;;;;;;4983540;28;20325;-82
2024/03/09 03:43:54;;;;;;;31.50;24.25;;;12.20;55.60;;;;;;4985340;28;20037;-81
2024/03/09 03:46:39;;;;;;;31.42;24.60;;;12.20;55.60;;;;;;4966566;28;20049;-82
2024/03/09 03:49:25;;;;;;;32.40;24.08;;;12.20;55.70;;;;;;4985582;28;20501;-81
2024/03/09 03:52:09;;;;;;;29.33;23.17;;;12.20;55.60;;;;;;4980603;28;20084;-81
2024/03/09 03:54:55;;;;;;;29.95;23.42;;;12.20;55.70;;;;;;4977832;28;20175;-80
2024/03/09 03:57:40;;;;;;;30.13;23.38;;;12.20;55.70;;;;;;4987241;28;20044;-80
2024/03/09 04:00:25;;;;;;;30.17;25.30;;;12.20;55.70;;;;;;4986372;28;20129;-80
2024/03/09 04:03:11;;;;;;;29.73;23.08;;;12.10;55.40;;;;;;4981718;28;20545;-80
2024/03/09 04:05:55;;;;;;;29.25;21.98;;;12.10;55.40;;;;;;4991489;28;20045;-80
2024/03/09 04:08:39;;;;;;;30.65;22.63;;;12.20;55.60;;;;;;4991735;28;20067;-81
2024/03/09 04:11:32;;;;;;;30.92;25.05;;;12.20;55.70;;;;;;4978375;28;20454;-81
2024/03/09 04:14:17;;;;;;;31.02;23.63;;;12.20;55.70;;;;;;4990917;28;20538;-83
2024/03/09 04:17:01;;;;;;;30.25;23.00;;;12.20;55.70;;;;;;4987319;28;20045;-83
2024/03/09 04:19:47;;;;;;;27.27;22.45;;;12.20;55.70;;;;;;4991838;28;20101;-83
2024/03/09 04:22:34;;;;;;;29.80;23.42;;;12.10;55.50;;;;;;4981046;28;20064;-82
2024/03/09 04:25:19;;;;;;;28.80;23.58;;;12.10;55.50;;;;;;4985413;28;20557;-82
2024/03/09 04:28:05;;;;;;;26.65;22.35;;;12.10;55.50;;;;;;4979281;28;20077;-81
2024/03/09 04:30:50;;;;;;;28.23;22.77;;;12.10;55.50;;;;;;4987026;28;20045;-81
2024/03/09 04:33:34;;;;;;;30.80;23.98;;;12.10;55.50;;;;;;4989633;28;20117;-81
2024/03/09 04:36:19;;;;;;;27.92;22.83;;;12.10;55.50;;;;;;4985705;28;20080;-81
2024/03/09 04:39:03;;;;;;;28.13;23.20;;;12.10;55.50;;;;;;4986926;28;20538;-81
2024/03/09 04:41:48;;;;;;;27.98;23.35;;;12.10;56.10;;;;;;4986643;28;20292;-82
2024/03/09 04:44:33;;;;;;;29.60;23.40;;;12.10;55.60;;;;;;4975503;28;20060;-83
2024/03/09 04:47:18;;;;;;;28.00;22.90;;;12.10;55.50;;;;;;4983024;28;20525;-83
2024/03/09 04:50:04;;;;;;;29.95;23.42;;;12.10;55.50;;;;;;4990140;28;20041;-83
2024/03/09 04:52:49;;;;;;;28.42;21.75;;;12.10;55.60;;;;;;4979980;28;20041;-83
2024/03/09 04:55:35;;;;;;;30.20;23.27;;;12.10;55.60;;;;;;4971195;28;20116;-82
2024/03/09 04:58:21;;;;;;;28.73;22.17;;;12.10;55.50;;;;;;4988610;28;20057;-82
2024/03/09 05:01:05;;;;;;;30.50;23.73;;;12.10;55.50;;;;;;4984596;28;20041;-82
2024/03/09 05:03:50;;;;;;;28.65;23.05;;;12.10;55.50;;;;;;4984700;28;20052;-82
2024/03/09 05:06:39;;;;;;;30.80;23.35;;;12.10;55.50;;;;;;4982178;28;20053;-81
2024/03/09 05:09:25;;;;;;;28.45;23.67;;;12.10;55.50;;;;;;4976893;28;20037;-81
2024/03/09 05:12:10;;;;;;;29.08;23.17;;;12.10;55.50;;;;;;4980377;28;20045;-82
2024/03/09 05:14:54;;;;;;;30.80;23.52;;;12.10;55.50;;;;;;4978486;28;20399;-82
2024/03/09 05:17:39;;;;;;;29.88;23.10;;;12.10;55.50;;;;;;4977869;28;20047;-83
2024/03/09 05:20:24;;;;;;;29.30;22.83;;;12.10;55.60;;;;;;5000508;28;20052;-82
2024/03/09 05:23:08;;;;;;;30.58;23.02;;;12.10;55.60;;;;;;4970431;28;20118;-83
2024/03/09 05:25:54;;;;;;;29.25;22.58;;;12.10;55.60;;;;;;4978207;28;20070;-82
2024/03/09 05:28:39;;;;;;;25.63;21.90;;;12.10;55.70;;;;;;4984722;28;20532;-83
2024/03/09 05:31:26;;;;;;;26.05;20.90;;;12.20;55.90;;;;;;4982147;28;20037;-82
2024/03/09 05:34:11;;;;;;;26.63;22.23;;;12.10;56.30;;;;;;4986271;28;20357;-82
2024/03/09 05:36:56;;;;;;;25.48;21.17;;;12.10;55.70;;;;;;4988154;28;20125;-82
2024/03/09 05:39:40;;;;;;;28.23;21.95;;;12.20;56.00;;;;;;4984364;28;20049;-82
2024/03/09 05:42:26;;;;;;;27.98;22.08;;;12.20;56.00;;;;;;4980431;28;20045;-82
2024/03/09 05:45:17;;;;;;;26.52;21.90;;;12.30;56.20;;;;;;4987255;28;20513;-81
2024/03/09 05:48:02;;;;;;;29.48;21.75;;;12.30;56.20;;;;;;4976927;28;20089;-82
2024/03/09 05:50:47;;;;;;;26.30;21.42;;;12.30;56.10;;;;;;4979345;28;20026;-82
2024/03/09 05:53:31;;;;;;;25.90;22.00;;;12.30;56.10;;;;;;4977768;28;20046;-82
2024/03/09 05:56:16;;;;;;;25.45;20.50;;;12.40;56.30;;;;;;4987954;28;20115;-82
2024/03/09 05:59:00;;;;;;;27.98;20.85;;;12.40;56.30;;;;;;4981176;28;20061;-81
2024/03/09 06:01:45;;;;;;;25.48;21.25;;;12.40;56.30;;;;;;4962573;28;20145;-81
2024/03/09 06:04:30;;;;;;;29.75;20.00;;;12.40;56.30;;;;;;4970000;28;20046;-82
2024/03/09 06:07:14;;;;;;;28.50;21.23;;;12.40;56.30;;;;;;4978288;28;20073;-82
2024/03/09 06:10:00;;;;;;;25.35;20.45;;;12.50;56.40;;;;;;4976314;28;20236;-81
2024/03/09 06:12:49;;;;;;;23.23;19.85;;;12.50;56.40;;;;;;4971680;28;20100;-81
2024/03/09 06:15:34;;;;;;;26.15;20.92;;;12.50;56.40;;;;;;4980196;28;20114;-81
2024/03/09 06:18:19;;;;;;;25.15;20.33;;;12.50;56.40;;;;;;4979063;28;20057;-81
2024/03/09 06:21:03;;;;;;;26.70;19.83;;;12.50;56.40;;;;;;4980117;28;20050;-81
2024/03/09 06:23:48;;;;;;;22.45;19.15;;;12.50;56.50;;;;;;4982004;28;20567;-82
2024/03/09 06:26:33;;;;;;;25.30;20.02;;;12.60;56.60;;;;;;4973534;28;20057;-81
2024/03/09 06:29:18;;;;;;;23.33;19.48;;;12.60;56.60;;;;;;4976215;28;20109;-81
2024/03/09 06:32:05;;;;;;;22.55;18.15;;;12.60;56.60;;;;;;4977899;28;20084;-80
2024/03/09 06:34:50;;;;;;;24.60;20.83;;;12.60;56.60;;;;;;4976440;28;20046;-80
2024/03/09 06:37:38;;;;;;;25.27;19.65;;;12.60;56.60;;;;;;4978960;28;20073;-80
2024/03/09 06:40:24;;;;;;;23.73;19.73;;;12.60;56.60;;;;;;4960386;28;20560;-81
2024/03/09 06:43:10;;;;;;;24.15;18.55;;;12.70;56.80;;;;;;4980396;28;20045;-81
2024/03/09 06:45:59;;;;;;;22.13;17.70;;;12.70;56.70;;;;;;4976184;28;20106;-80
2024/03/09 06:48:43;;;;;;;24.48;20.35;;;12.70;56.80;;;;;;4967534;28;20165;-81
2024/03/09 06:51:27;;;;;;;22.80;18.52;;;12.70;56.70;;;;;;4965573;28;20037;-82
2024/03/09 06:54:12;;;;;;;28.05;18.80;;;12.70;56.70;;;;;;4972849;28;20089;-82
2024/03/09 06:56:57;;;;;;;21.27;18.08;;;12.80;56.90;;;;;;4973444;28;20122;-82
2024/03/09 06:59:41;;;;;;;23.38;17.50;;;12.80;56.90;;;;;;4967395;28;20265;-80
2024/03/09 07:02:26;;;;;;;18.58;14.57;;;12.80;56.90;;;;;;4972942;28;20069;-80
2024/03/09 07:05:12;;;;;;;19.58;15.20;;;12.80;57.10;;;;;;4970011;28;20045;-80
2024/03/09 07:08:00;;;;;;;20.00;16.17;;;12.90;57.30;;;;;;4973776;28;20100;-78
2024/03/09 07:10:44;;;;;;;19.20;14.63;;;12.90;57.40;;;;;;4977033;28;20581;-79
2024/03/09 07:13:28;;;;;;;17.08;14.43;;;13.00;57.70;;;;;;4972812;28;20037;-79
2024/03/09 07:16:15;;;;;;;18.75;15.00;;;13.10;57.90;;;;;;4973854;28;20544;-81
2024/03/09 07:19:00;;;;;;;20.17;15.88;;;13.20;58.20;;;;;;4968335;28;20185;-81
2024/03/09 07:21:44;;;;;;;18.38;16.00;;;13.20;58.30;;;;;;4974246;28;20041;-78
2024/03/09 07:24:29;;;;;;;20.48;15.60;;;13.30;58.60;;;;;;4969705;28;20478;-78
2024/03/09 07:27:13;;;;;;;21.40;15.20;;;13.30;58.70;;;;;;4976112;28;20040;-80
2024/03/09 07:29:58;;;;;;;22.05;16.10;;;13.40;59.00;;;;;;4967186;28;20101;-78
2024/03/09 07:32:49;;;;;;;22.50;17.00;;;13.40;59.00;;;;;;4975506;28;20529;-79
2024/03/09 07:35:36;;;;;;;20.83;16.98;;;13.40;59.00;;;;;;4978830;28;20539;-80
2024/03/09 07:38:21;;;;;;;25.00;17.48;;;13.30;58.80;;;;;;4975352;28;20171;-79
2024/03/09 07:41:07;;;;;;;22.98;17.98;;;13.30;58.80;;;;;;4979270;28;20077;-78
2024/03/09 07:43:51;;;;;;;24.08;18.15;;;13.30;58.80;;;;;;4973415;28;20041;-78
2024/03/09 07:46:36;;;;;;;23.88;18.77;;;13.20;58.60;;;;;;4970241;28;20160;-78
2024/03/09 07:49:22;;;;;;;24.48;18.95;;;13.10;58.50;;;;;;4973200;28;20041;-79
2024/03/09 07:52:07;;;;;;;23.05;18.98;;;13.10;58.60;;;;;;4972993;28;20053;-78
2024/03/09 07:54:52;;;;;;;24.80;19.42;;;13.00;58.50;;;;;;4986351;28;20462;-80
2024/03/09 07:57:37;;;;;;;25.90;19.55;;;13.00;58.50;;;;;;4970030;28;20046;-78
2024/03/09 08:00:22;;;;;;;24.02;18.88;;;12.90;58.40;;;;;;4961389;28;20470;-80
2024/03/09 08:03:07;;;;;;;23.60;19.40;;;12.80;58.30;;;;;;4975950;28;20041;-79
2024/03/09 08:05:52;;;;;;;24.90;20.25;;;12.70;58.20;;;;;;4975225;28;20518;-80
2024/03/09 08:08:36;;;;;;;25.38;20.27;;;12.80;58.40;;;;;;4968640;28;20046;-78
2024/03/09 08:11:22;;;;;;;24.65;20.35;;;12.70;58.20;;;;;;4961593;28;20041;-78
2024/03/09 08:14:07;;;;;;;26.63;19.48;;;12.80;58.30;;;;;;4973822;28;20049;-80
2024/03/09 08:16:51;;;;;;;22.95;19.27;;;12.80;58.20;;;;;;4981071;28;20048;-79
2024/03/09 08:19:36;;;;;;;24.55;19.70;;;12.80;58.20;;;;;;4966659;28;20057;-83
2024/03/09 08:22:22;;;;;;;23.23;18.50;;;12.90;58.30;;;;;;4973994;28;20225;-79
2024/03/09 08:25:12;;;;;;;23.25;16.67;;;12.90;58.30;;;;;;4986757;28;20085;-78
2024/03/09 08:27:58;;;;;;;21.00;17.13;;;13.00;58.40;;;;;;4967388;28;20045;-79
2024/03/09 08:30:45;;;;;;;22.10;17.85;;;13.10;58.50;;;;;;4972007;28;20050;-79
2024/03/09 08:33:30;;;;;;;22.58;17.40;;;13.20;58.50;;;;;;4979635;28;20072;-79
2024/03/09 08:36:20;;;;;;;20.92;17.52;;;13.20;58.40;;;;;;4962623;28;20049;-78
2024/03/09 08:39:04;;;;;;;23.75;17.83;;;13.20;58.40;;;;;;4969951;28;20061;-78
2024/03/09 08:41:49;;;;;;;21.63;17.50;;;13.30;58.50;;;;;;4966342;28;20081;-80
2024/03/09 08:44:36;;;;;;;19.83;17.45;;;13.30;58.40;;;;;;4972541;28;20045;-79
2024/03/09 08:47:20;;;;;;;18.63;14.85;;;13.30;58.30;;;;;;4971503;28;20054;-79
2024/03/09 08:50:06;;;;;;;15.27;13.13;;;13.30;58.30;;;;;;4973136;28;20418;-78
2024/03/09 08:52:52;;;;;;;19.83;14.05;;;13.40;58.60;;;;;;4981533;28;20129;-78
2024/03/09 08:55:36;;;;;;;16.95;14.70;;;13.40;58.60;;;;;;4974691;28;20287;-79
2024/03/09 08:58:21;;;;;;;16.48;12.73;;;13.40;58.60;;;;;;4971127;28;20052;-78
2024/03/09 09:01:06;;;;;;;13.73;11.85;;;13.50;58.80;;;;;;4972815;28;20584;-78
2024/03/09 09:03:50;;;;;;;14.73;11.82;;;13.50;58.80;;;;;;4961721;28;20402;-79
2024/03/09 09:06:36;;;;;;;14.77;12.02;;;13.50;58.80;;;;;;4970488;28;20386;-78
2024/03/09 09:09:25;;;;;;;15.55;12.15;;;13.50;58.90;;;;;;4979235;28;20070;-78
2024/03/09 09:12:10;;;;;;;15.15;11.23;;;13.50;59.00;;;;;;4966751;28;20045;-78
2024/03/09 09:14:56;;;;;;;14.30;11.13;;;13.50;59.10;;;;;;4965494;28;20204;-79
2024/03/09 09:17:41;;;;;;;12.50;10.05;;;13.50;59.10;;;;;;4974959;28;20627;-76
2024/03/09 09:20:25;;;;;;;13.35;10.35;;;13.50;59.20;;;;;;4970551;28;20417;-77
2024/03/09 09:23:10;;;;;;;11.05;9.52;;;13.50;59.30;;;;;;4978756;28;20040;-77
2024/03/09 09:25:54;;;;;;;13.20;9.65;;;13.60;59.40;;;;;;4971984;28;20050;-77
2024/03/09 09:28:39;;;;;;;9.50;8.50;;;13.60;59.40;;;;;;4973776;28;20046;-78
2024/03/09 09:31:24;;;;;;;12.10;8.32;;;13.70;59.50;;;;;;4973178;28;20169;-78
2024/03/09 09:34:10;;;;;;;10.50;8.07;;;13.70;59.50;;;;;;4978242;28;20117;-78
2024/03/09 09:36:55;;;;;;;10.27;8.63;;;13.80;59.60;;;;;;4978085;28;20431;-78
2024/03/09 09:39:40;;;;;;;10.40;7.40;;;13.90;59.70;;;;;;4973368;28;20069;-80
2024/03/09 09:42:30;;;;;;;10.50;7.25;;;13.90;59.60;;;;;;4967634;28;20089;-78
2024/03/09 09:45:22;;;;;;;7.93;5.75;;;14.00;59.90;;;;;;4973347;28;20190;-78
2024/03/09 09:48:07;;;;;;;6.40;5.07;;;14.10;60.10;;;;;;4971452;28;20049;-77
2024/03/09 09:50:52;;;;;;;6.43;4.95;;;14.30;60.50;;;;;;4977090;28;20046;-77
2024/03/09 09:53:38;;;;;;;5.53;4.53;;;14.50;60.70;;;;;;4979010;28;20553;-77
2024/03/09 09:56:23;;;;;;;7.38;4.65;;;14.70;60.70;;;;;;4974532;28;20042;-77
2024/03/09 09:59:07;;;;;;;5.22;4.13;;;15.00;61.40;;;;;;4964970;28;20101;-77
2024/03/09 10:01:52;;;;;;;5.13;3.88;;;15.20;60.80;;;;;;4975834;28;20049;-77
2024/03/09 10:04:40;;;;;;;5.30;3.67;;;15.50;60.90;;;;;;4975829;28;20049;-77
2024/03/09 10:07:25;;;;;;;5.60;4.00;;;15.70;60.90;;;;;;4970028;28;20041;-78
2024/03/09 10:10:16;;;;;;;5.07;3.80;;;15.90;60.90;;;;;;4961487;28;20045;-78
2024/03/09 10:13:17;;;;;;;4.65;4.25;;;16.20;61.00;;;;;;4971787;28;20394;-77
2024/03/09 10:16:03;;;;;;;5.85;3.38;;;16.40;60.80;;;;;;4968191;28;20174;-77
2024/03/09 10:18:47;;;;;;;3.10;2.80;;;16.60;60.70;;;;;;4965910;28;20084;-77
2024/03/09 10:21:38;;;;;;;5.40;2.75;;;16.80;60.70;;;;;;4971882;28;20392;-77
2024/03/09 10:24:23;;;;;;;5.45;2.67;;;16.90;60.50;;;;;;4972895;28;20107;-77
2024/03/09 10:27:10;;;;;;;3.40;2.53;;;17.10;60.50;;;;;;4975507;28;20386;-78
2024/03/09 10:30:11;;;;;;;3.33;2.35;;;17.20;60.40;;;;;;4972257;28;20037;-77
2024/03/09 10:32:56;;;;;;;2.95;2.08;;;17.40;60.30;;;;;;4973979;28;20053;-77
2024/03/09 10:35:42;;;;;;;3.47;2.20;;;17.50;60.10;;;;;;4967819;28;20053;-77
2024/03/09 10:38:29;;;;;;;3.60;2.40;;;17.70;60.00;;;;;;4989293;28;20145;-77
2024/03/09 10:41:16;;;;;;;3.40;2.00;;;17.80;59.90;;;;;;4967075;28;20039;-79
2024/03/09 10:44:01;;;;;;;5.78;1.90;;;17.90;59.80;;;;;;4972672;28;20050;-77
2024/03/09 10:46:47;;;;;;;2.13;1.75;;;18.00;59.70;;;;;;4970520;28;20681;-77
2024/03/09 10:49:34;;;;;;;2.05;1.67;;;18.10;59.60;;;;;;4974263;28;20053;-77
2024/03/09 10:52:22;;;;;;;2.35;1.85;;;18.10;59.20;;;;;;4973173;28;20359;-77
2024/03/09 10:55:10;;;;;;;2.47;1.73;;;18.20;59.10;;;;;;4975638;28;20405;-80
2024/03/09 10:57:58;;;;;;;3.42;1.38;;;18.20;58.90;;;;;;4977430;28;20362;-77
2024/03/09 11:00:52;;;;;;;2.63;1.45;;;18.40;59.20;;;;;;4972962;28;20051;-77
2024/03/09 11:03:38;;;;;;;1.65;1.40;;;18.40;58.90;;;;;;4971424;28;20070;-77
2024/03/09 11:06:23;;;;;;;2.70;1.25;;;18.50;58.80;;;;;;4973582;28;20076;-77
2024/03/09 11:09:11;;;;;;;1.55;0.95;;;18.60;58.70;;;;;;4970061;28;20045;-77
2024/03/09 11:12:01;;;;;;;3.47;1.20;;;18.70;58.50;;;;;;4967452;28;20077;-77
2024/03/09 11:14:52;;;;;;;2.08;1.38;;;18.80;58.40;;;;;;4968314;28;20153;-77
2024/03/09 11:17:37;;;;;;;1.95;1.10;;;18.90;58.20;;;;;;4973120;28;20057;-77
2024/03/09 11:20:22;;;;;;;1.27;0.95;;;19.00;58.30;;;;;;4972457;28;20104;-76
2024/03/09 11:23:07;;;;;;;2.80;1.10;;;19.00;57.90;;;;;;4964248;28;20046;-77
2024/03/09 11:25:54;;;;;;;1.67;1.13;;;19.10;57.90;;;;;;4963254;28;20109;-77
2024/03/09 11:28:42;;;;;;;1.17;0.95;;;19.10;57.60;;;;;;4975349;28;20105;-77
2024/03/09 11:31:28;;;;;;;1.25;1.13;;;19.20;57.60;;;;;;4968958;28;20502;-77
2024/03/09 11:34:16;;;;;;;1.52;1.00;;;19.20;57.50;;;;;;4964414;28;20058;-78
2024/03/09 11:37:01;;;;;;;1.30;0.80;;;19.30;57.40;;;;;;4971752;28;20149;-77
2024/03/09 11:39:46;;;;;;;1.42;0.73;;;19.30;57.30;;;;;;4966778;28;20085;-77
2024/03/09 11:42:30;;;;;;;0.95;0.85;;;19.40;57.30;;;;;;4970745;28;20084;-77
2024/03/09 11:45:18;;;;;;;2.15;0.85;;;19.50;57.20;;;;;;4966273;28;20045;-78
2024/03/09 11:48:03;;;;;;;1.80;1.30;;;19.60;57.10;;;;;;4965460;28;20037;-80
2024/03/09 11:50:48;;;;;;;1.08;0.90;;;19.70;57.00;;;;;;4966271;28;20045;-78
2024/03/09 11:53:34;;;;;;;2.58;1.02;;;19.80;56.90;;;;;;4968551;28;20532;-79
2024/03/09 11:56:18;;;;;;;1.75;0.90;;;19.90;56.80;;;;;;4969061;28;20049;-79
2024/03/09 11:59:06;;;;;;;1.77;0.95;;;19.90;56.80;;;;;;4975544;28;20104;-79
2024/03/09 12:02:06;;;;;;;1.45;1.23;;;19.90;56.70;;;;;;4965822;28;20105;-80
2024/03/09 12:04:56;;;;;;;1.85;1.30;;;19.80;56.30;;;;;;4973669;28;20477;-78
2024/03/09 12:07:47;;;;;;;1.80;0.93;;;19.80;56.40;;;;;;4966048;28;20577;-79
2024/03/09 12:10:32;;;;;;;1.52;1.00;;;19.70;56.20;;;;;;4962843;28;20422;-79
2024/03/09 12:13:16;;;;;;;1.77;0.98;;;19.60;56.30;;;;;;4970145;28;20499;-79
2024/03/09 12:16:03;;;;;;;2.47;1.17;;;19.60;56.40;;;;;;4972011;28;20130;-79
2024/03/09 12:18:48;;;;;;;1.20;0.88;;;19.50;56.20;;;;;;4974427;28;20853;-78
2024/03/09 12:21:37;;;;;;;1.60;0.93;;;19.50;56.30;;;;;;4974005;28;20045;-79
2024/03/09 12:24:22;;;;;;;1.90;1.08;;;19.40;56.10;;;;;;4975556;28;20273;-79
2024/03/09 12:27:09;;;;;;;2.47;0.90;;;19.40;56.20;;;;;;4971803;28;20232;-78
2024/03/09 12:29:55;;;;;;;1.58;1.02;;;19.40;56.10;;;;;;4988340;28;20040;-79
2024/03/09 12:32:40;;;;;;;1.35;0.80;;;19.40;56.10;;;;;;4956829;28;20414;-78
2024/03/09 12:35:25;;;;;;;1.20;1.00;;;19.50;56.20;;;;;;4972380;28;20130;-78
2024/03/09 12:38:11;;;;;;;1.50;0.85;;;19.50;56.10;;;;;;4977160;28;20468;-79
2024/03/09 12:40:56;;;;;;;1.23;1.00;;;19.60;56.20;;;;;;4980994;28;20252;-78
2024/03/09 12:43:42;;;;;;;2.70;1.05;;;19.70;56.20;;;;;;4975848;28;20049;-78
2024/03/09 12:46:28;;;;;;;2.90;2.10;;;19.70;55.90;;;;;;4970923;28;20049;-78
2024/03/09 12:49:13;;;;;;;1.90;0.93;;;19.80;56.00;;;;;;4972093;28;20097;-78
2024/03/09 12:51:58;;;;;;;2.05;0.95;;;19.80;55.90;;;;;;4967691;28;20042;-79
2024/03/09 12:54:46;;;;;;;1.55;1.08;;;19.80;55.90;;;;;;4988606;28;20431;-78
2024/03/09 12:57:33;;;;;;;2.72;1.52;;;19.80;56.40;;;;;;4966697;28;20046;-79
2024/03/09 13:00:23;;;;;;;1.67;1.45;;;19.80;55.70;;;;;;4963223;28;20049;-79
2024/03/09 13:03:08;;;;;;;1.27;0.85;;;19.80;55.70;;;;;;4978466;28;20573;-79
2024/03/09 13:05:53;;;;;;;1.23;0.98;;;19.80;55.60;;;;;;4988502;28;20333;-79
2024/03/09 13:08:41;;;;;;;1.98;1.20;;;19.80;55.50;;;;;;4976900;28;20054;-79
2024/03/09 13:11:27;;;;;;;1.98;1.20;;;19.90;55.60;;;;;;4962018;28;20318;-79
2024/03/09 13:14:12;;;;;;;2.45;1.00;;;19.90;55.50;;;;;;4965924;28;20085;-79
2024/03/09 13:16:56;;;;;;;1.40;1.08;;;20.00;55.50;;;;;;4962400;28;20087;-80
2024/03/09 13:19:40;;;;;;;2.08;1.15;;;20.10;55.50;;;;;;4971197;28;20497;-79
2024/03/09 13:22:25;;;;;;;1.48;0.90;;;20.10;55.30;;;;;;4973481;28;20714;-80
2024/03/09 13:25:10;;;;;;;3.88;1.02;;;20.20;55.30;;;;;;4973998;28;20623;-80
2024/03/09 13:27:56;;;;;;;1.42;0.98;;;20.30;55.30;;;;;;4972934;28;20076;-80
2024/03/09 13:30:42;;;;;;;1.50;1.10;;;20.30;55.20;;;;;;4973412;28;20097;-78
2024/03/09 13:33:32;;;;;;;0.80;0.77;;;20.30;55.20;;;;;;4968139;28;20413;-78
2024/03/09 13:36:23;;;;;;;2.28;1.33;;;20.30;55.10;;;;;;4974690;28;20068;-79
2024/03/09 13:39:15;;;;;;;1.00;0.80;;;20.20;55.00;;;;;;4969097;28;20067;-80
2024/03/09 13:41:59;;;;;;;1.38;0.60;;;20.20;55.00;;;;;;4969655;28;20142;-79
2024/03/09 13:44:44;;;;;;;0.88;0.68;;;20.20;55.00;;;;;;4966527;28;20049;-79
2024/03/09 13:47:28;;;;;;;1.63;0.80;;;20.20;55.00;;;;;;4958111;28;20089;-80
2024/03/09 13:50:20;;;;;;;1.95;0.77;;;20.30;55.00;;;;;;4970321;28;20090;-79
2024/03/09 13:53:05;;;;;;;2.65;1.08;;;20.40;55.00;;;;;;4963395;28;20135;-78
2024/03/09 13:55:50;;;;;;;1.85;0.73;;;20.40;54.90;;;;;;4970909;28;20057;-79
2024/03/09 13:58:35;;;;;;;0.50;0.50;;;20.40;54.70;;;;;;4963400;28;20113;-79
2024/03/09 14:01:20;;;;;;;3.47;1.20;;;20.40;54.60;;;;;;4976801;28;20492;-79
2024/03/09 14:04:05;;;;;;;1.45;1.23;;;20.50;54.80;;;;;;4977671;28;20161;-80
2024/03/09 14:06:51;;;;;;;2.53;2.42;;;20.50;54.70;;;;;;4972670;28;20457;-81
2024/03/09 14:09:48;;;;;;;3.05;2.13;;;20.50;54.60;;;;;;4977086;28;20146;-77